Time;durP1;ratioP1;P1;durP2;ratioP2;P2;SDS_P1;SDS_P2;PMS_P1;PMS_P2;Temp;Humidity;BMP_temperature;BMP_pressure;BME280_temperature;BME280_humidity;BME280_pressure;Samples;Min_cycle;Max_cycle;Signal;HPM_P1;HPM_P2
2022/09/20 00:01:12;;;;;;;9.52;1.40;;;11.60;99.90;;;;;;4991905;28;20062;-61
2022/09/20 00:03:40;;;;;;;9.57;1.95;;;11.50;99.90;;;;;;4976776;28;20427;-60
2022/09/20 00:06:08;;;;;;;6.75;2.15;;;11.50;99.90;;;;;;4983607;28;20042;-60
2022/09/20 00:08:34;;;;;;;8.07;1.75;;;11.40;99.90;;;;;;4997045;28;20121;-61
2022/09/20 00:11:05;;;;;;;6.63;1.23;;;11.40;99.90;;;;;;4987253;28;20435;-61
2022/09/20 00:13:32;;;;;;;4.43;1.58;;;11.40;99.90;;;;;;4996760;28;20388;-62
2022/09/20 00:15:59;;;;;;;7.70;1.42;;;11.40;99.90;;;;;;4976036;28;20133;-61
2022/09/20 00:18:26;;;;;;;7.93;1.67;;;11.40;99.90;;;;;;5004000;28;20048;-61
2022/09/20 00:20:52;;;;;;;6.88;1.23;;;11.40;99.90;;;;;;4990644;28;20409;-62
2022/09/20 00:23:18;;;;;;;7.85;1.73;;;11.40;99.90;;;;;;5006497;23;20041;-83
2022/09/20 00:25:45;;;;;;;8.25;1.27;;;11.40;99.90;;;;;;4988831;28;20525;-83
2022/09/20 00:28:11;;;;;;;9.40;1.35;;;11.40;99.90;;;;;;5000608;28;20045;-83
2022/09/20 00:30:38;;;;;;;7.13;1.70;;;11.40;99.90;;;;;;4983664;28;20103;-83
2022/09/20 00:33:03;;;;;;;10.43;2.08;;;11.40;99.90;;;;;;4987890;28;20119;-82
2022/09/20 00:35:30;;;;;;;5.93;1.35;;;11.30;99.90;;;;;;4983193;28;20586;-84
2022/09/20 00:37:56;;;;;;;3.83;1.25;;;11.30;99.90;;;;;;4988300;28;20034;-83
2022/09/20 00:40:25;;;;;;;5.68;1.60;;;11.20;99.90;;;;;;4988253;28;20659;-83
2022/09/20 00:42:51;;;;;;;8.65;1.60;;;11.20;99.90;;;;;;4982990;28;20057;-83
2022/09/20 00:45:26;;;;;;;7.95;1.40;;;11.20;99.90;;;;;;4997637;28;20042;-82
2022/09/20 00:48:21;;;;;;;10.30;1.73;;;11.30;99.90;;;;;;4985375;28;20565;-82
2022/09/20 00:51:16;;;;;;;4.85;1.25;;;11.30;99.90;;;;;;5002974;28;20689;-84
2022/09/20 00:53:47;;;;;;;5.40;1.30;;;11.30;99.90;;;;;;4981219;28;20053;-83
2022/09/20 00:56:18;;;;;;;9.10;1.50;;;11.20;99.90;;;;;;4985312;28;20040;-83
2022/09/20 00:58:49;;;;;;;10.10;1.63;;;11.30;99.90;;;;;;5004079;28;20041;-84
2022/09/20 01:01:15;;;;;;;7.88;1.45;;;11.30;99.90;;;;;;4986640;28;20618;-83
2022/09/20 01:03:41;;;;;;;10.05;1.73;;;11.30;99.90;;;;;;4966272;28;20128;-83
2022/09/20 01:06:10;;;;;;;8.98;1.83;;;11.30;99.90;;;;;;4982669;28;20057;-83
2022/09/20 01:08:40;;;;;;;7.72;1.40;;;11.40;99.90;;;;;;4981508;28;20510;-83
2022/09/20 01:11:05;;;;;;;8.57;1.58;;;11.40;99.90;;;;;;4981668;28;20724;-83
2022/09/20 01:13:31;;;;;;;9.88;1.80;;;11.40;99.90;;;;;;4970468;28;20517;-83
2022/09/20 01:16:00;;;;;;;8.70;1.98;;;11.40;99.90;;;;;;4950444;28;20061;-83
2022/09/20 01:18:27;;;;;;;8.73;1.60;;;11.40;99.90;;;;;;4957843;28;20068;-82
2022/09/20 01:20:54;;;;;;;10.38;1.92;;;11.40;99.90;;;;;;4978764;28;20045;-83
2022/09/20 01:23:59;;;;;;;9.48;2.38;;;11.40;99.90;;;;;;4975875;28;20660;-83
2022/09/20 01:26:44;;;;;;;9.55;1.42;;;11.50;99.90;;;;;;5007756;28;20042;-83
2022/09/20 01:29:31;;;;;;;7.38;1.23;;;11.50;99.90;;;;;;4991116;28;20052;-83
2022/09/20 01:32:02;;;;;;;7.78;1.17;;;11.60;99.90;;;;;;4993769;28;20132;-83
2022/09/20 01:34:36;;;;;;;7.45;1.33;;;11.60;99.90;;;;;;4987797;28;20037;-83
2022/09/20 01:37:26;;;;;;;4.90;1.13;;;11.70;99.90;;;;;;4990095;28;20042;-83
2022/09/20 01:40:16;;;;;;;7.22;1.33;;;11.70;99.90;;;;;;4987913;28;20144;-84
2022/09/20 01:42:51;;;;;;;3.33;1.00;;;11.80;99.90;;;;;;5003772;28;20069;-83
2022/09/20 01:45:23;;;;;;;8.70;1.27;;;11.80;99.90;;;;;;5006256;28;20044;-83
2022/09/20 01:48:09;;;;;;;5.80;1.35;;;11.80;99.90;;;;;;4987032;28;20490;-83
2022/09/20 01:50:59;;;;;;;5.25;1.40;;;11.90;99.90;;;;;;5013943;28;20125;-83
2022/09/20 01:53:45;;;;;;;6.32;1.10;;;11.90;99.90;;;;;;4988724;28;20057;-82
2022/09/20 01:56:44;;;;;;;4.10;1.10;;;12.00;99.90;;;;;;4988296;28;20056;-82
2022/09/20 01:59:38;;;;;;;6.05;1.20;;;12.00;99.90;;;;;;4985959;28;20048;-82
2022/09/20 02:02:27;;;;;;;8.77;1.33;;;12.00;99.90;;;;;;4999549;28;20050;-84
2022/09/20 02:05:13;;;;;;;4.32;1.25;;;12.10;99.90;;;;;;5004338;28;20038;-83
2022/09/20 02:07:57;;;;;;;4.78;1.05;;;12.10;99.90;;;;;;4967621;28;20395;-81
2022/09/20 02:10:45;;;;;;;7.10;1.48;;;12.10;99.90;;;;;;4973396;28;20042;-83
2022/09/20 02:13:20;;;;;;;13.18;1.33;;;12.10;99.90;;;;;;4994480;28;20240;-83
2022/09/20 02:16:23;;;;;;;5.70;0.90;;;12.20;99.90;;;;;;4980991;28;20673;-82
2022/09/20 02:19:26;;;;;;;3.67;1.00;;;12.20;99.90;;;;;;5000615;28;20042;-84
2022/09/20 02:22:07;;;;;;;4.55;1.02;;;12.20;99.90;;;;;;4988029;28;20092;-83
2022/09/20 02:24:54;;;;;;;6.03;1.10;;;12.30;99.90;;;;;;4994929;28;20038;-82
2022/09/20 02:27:44;;;;;;;6.13;1.30;;;12.30;99.90;;;;;;5002343;28;20511;-83
2022/09/20 02:30:24;;;;;;;6.72;0.93;;;12.30;99.90;;;;;;4989902;28;20105;-83
2022/09/20 02:33:40;;;;;;;3.17;0.80;;;12.10;99.90;;;;;;4986595;28;20061;-84
2022/09/20 02:36:16;;;;;;;5.65;0.82;;;12.00;99.90;;;;;;4913376;29;20400;-83
2022/09/20 02:38:55;;;;;;;5.30;0.93;;;12.00;99.90;;;;;;4921950;28;20229;-83
2022/09/20 02:41:37;;;;;;;7.65;1.83;;;11.90;99.90;;;;;;4951630;28;20042;-82
2022/09/20 02:44:11;;;;;;;4.85;1.10;;;11.90;99.90;;;;;;4984897;28;20037;-82
2022/09/20 02:46:44;;;;;;;;;;;11.80;99.90;;;;;;5003997;28;20149;-82
2022/09/20 02:49:22;;;;;;;4.68;1.02;;;11.80;99.90;;;;;;4984664;28;19925;-83
2022/09/20 02:52:06;;;;;;;3.50;1.05;;;11.70;99.90;;;;;;4976049;28;20061;-82
2022/09/20 02:54:54;;;;;;;8.80;2.03;;;11.70;99.90;;;;;;4985626;28;20053;-83
2022/09/20 02:57:47;;;;;;;9.45;1.30;;;11.70;99.90;;;;;;4998728;28;20133;-83
2022/09/20 03:00:44;;;;;;;6.13;1.77;;;11.70;99.90;;;;;;4984313;28;20049;-83
2022/09/20 03:03:26;;;;;;;5.85;1.00;;;11.70;99.90;;;;;;5000349;28;20061;-83
2022/09/20 03:06:04;;;;;;;5.45;1.10;;;11.70;99.90;;;;;;4999076;28;20608;-82
2022/09/20 03:08:59;;;;;;;6.05;1.42;;;11.70;99.90;;;;;;4996264;28;20044;-83
2022/09/20 03:11:38;;;;;;;5.25;1.80;;;11.80;99.90;;;;;;4991080;28;20034;-83
2022/09/20 03:14:23;;;;;;;5.97;1.58;;;11.80;99.90;;;;;;4998742;28;20042;-83
2022/09/20 03:17:04;;;;;;;5.43;0.98;;;11.80;99.90;;;;;;4997895;28;20049;-83
2022/09/20 03:19:52;;;;;;;5.13;1.10;;;11.80;99.90;;;;;;5000940;28;20041;-82
2022/09/20 03:22:26;;;;;;;5.05;1.20;;;11.90;99.90;;;;;;4986617;28;20513;-83
2022/09/20 03:25:17;;;;;;;5.05;1.02;;;11.90;99.90;;;;;;4995594;28;20061;-82
2022/09/20 03:28:09;;;;;;;4.82;1.00;;;12.00;99.90;;;;;;4980667;28;20038;-83
2022/09/20 03:30:47;;;;;;;3.08;0.90;;;11.90;99.90;;;;;;4983632;28;20092;-83
2022/09/20 03:33:50;;;;;;;5.38;1.30;;;11.90;99.90;;;;;;4989744;28;20510;-83
2022/09/20 03:36:47;;;;;;;3.47;1.05;;;11.90;99.90;;;;;;4987722;28;20101;-84
2022/09/20 03:39:51;;;;;;;7.88;2.08;;;11.90;99.90;;;;;;5003681;28;20053;-84
2022/09/20 03:42:18;;;;;;;6.40;1.08;;;11.90;99.90;;;;;;5018261;28;20114;-83
2022/09/20 03:45:06;;;;;;;6.82;1.45;;;11.90;99.90;;;;;;4981786;28;20083;-83
2022/09/20 03:47:50;;;;;;;4.25;1.00;;;11.90;99.90;;;;;;4990745;28;20350;-82
2022/09/20 03:50:21;;;;;;;5.88;1.35;;;11.90;99.90;;;;;;5002413;28;20349;-84
2022/09/20 03:53:04;;;;;;;3.85;1.20;;;11.90;99.90;;;;;;4985140;28;20045;-83
2022/09/20 03:55:48;;;;;;;5.82;1.00;;;11.90;99.90;;;;;;4987939;28;20038;-83
2022/09/20 03:58:37;;;;;;;4.13;1.10;;;11.90;99.90;;;;;;5003552;28;20453;-82
2022/09/20 04:01:25;;;;;;;7.47;1.25;;;11.80;99.90;;;;;;4999805;28;20042;-83
2022/09/20 04:04:13;;;;;;;4.25;1.20;;;11.80;99.90;;;;;;5003442;28;20129;-81
2022/09/20 04:07:06;;;;;;;7.55;1.65;;;11.80;99.90;;;;;;4986580;28;20037;-83
2022/09/20 04:10:01;;;;;;;7.87;1.23;;;11.80;99.90;;;;;;4997693;28;20048;-84
2022/09/20 04:13:05;;;;;;;5.20;1.25;;;11.80;99.90;;;;;;5018666;28;20046;-82
2022/09/20 04:15:49;;;;;;;7.50;1.92;;;11.80;99.90;;;;;;5015443;28;20045;-83
2022/09/20 04:18:23;;;;;;;;;;;11.80;99.90;;;;;;5015511;28;20455;-83
2022/09/20 04:21:09;;;;;;;;;;;11.80;99.90;;;;;;4986401;28;19983;-83
2022/09/20 04:23:46;;;;;;;4.18;1.15;;;11.80;99.90;;;;;;4980868;28;19944;-83
2022/09/20 04:26:19;;;;;;;5.53;1.33;;;11.70;99.90;;;;;;4990088;28;20046;-84
2022/09/20 04:29:13;;;;;;;6.53;2.00;;;11.80;99.90;;;;;;4989537;28;20061;-83
2022/09/20 04:31:42;;;;;;;5.75;1.38;;;11.80;99.90;;;;;;4987613;28;20135;-82
2022/09/20 04:36:27;;;;;;;7.72;1.48;;;11.80;99.90;;;;;;4987560;28;20056;-83
2022/09/20 04:37:34;;;;;;;5.03;1.38;;;11.80;99.90;;;;;;5002428;28;20053;-83
2022/09/20 04:40:15;;;;;;;8.43;1.52;;;11.80;99.90;;;;;;5007609;28;20056;-83
2022/09/20 04:43:18;;;;;;;10.00;1.77;;;11.70;99.90;;;;;;4995506;28;20046;-83
2022/09/20 04:46:32;;;;;;;6.40;1.98;;;11.80;99.90;;;;;;5009380;28;20049;-82
2022/09/20 04:49:23;;;;;;;5.80;1.67;;;11.80;99.90;;;;;;4938581;28;20042;-84
2022/09/20 04:52:26;;;;;;;6.22;1.45;;;11.70;99.90;;;;;;5023435;28;20050;-83
2022/09/20 04:55:11;;;;;;;5.93;1.83;;;11.70;99.90;;;;;;5002752;28;20132;-84
2022/09/20 04:57:45;;;;;;;4.45;1.48;;;11.70;99.90;;;;;;4998001;28;20034;-81
2022/09/20 05:00:18;;;;;;;8.90;1.92;;;11.70;99.90;;;;;;4989528;28;20494;-82
2022/09/20 05:02:53;;;;;;;4.07;1.20;;;11.70;99.90;;;;;;4985260;28;20145;-83
2022/09/20 05:05:28;;;;;;;4.35;1.33;;;11.70;99.90;;;;;;4985380;28;20132;-83
2022/09/20 05:07:56;;;;;;;6.50;1.27;;;11.70;99.90;;;;;;4984529;28;20068;-81
2022/09/20 05:10:53;;;;;;;6.35;2.00;;;11.70;99.90;;;;;;5018483;28;20095;-81
2022/09/20 05:13:41;;;;;;;9.73;1.95;;;11.80;99.90;;;;;;4982038;28;20044;-83
2022/09/20 05:16:28;;;;;;;6.65;1.48;;;11.70;99.90;;;;;;4988322;28;20042;-83
2022/09/20 05:19:19;;;;;;;6.60;1.60;;;11.70;99.90;;;;;;5018326;28;20485;-83
2022/09/20 05:22:28;;;;;;;4.10;1.38;;;11.70;99.90;;;;;;4997203;28;20406;-82
2022/09/20 05:25:06;;;;;;;6.15;2.10;;;11.70;99.90;;;;;;4940963;28;20054;-83
2022/09/20 05:27:49;;;;;;;6.53;1.13;;;11.70;99.90;;;;;;5001856;28;20050;-83
2022/09/20 05:30:44;;;;;;;5.60;1.50;;;11.70;99.90;;;;;;4989359;28;20050;-84
2022/09/20 05:33:19;;;;;;;4.72;1.33;;;11.70;99.90;;;;;;4989396;28;20084;-83
2022/09/20 05:36:03;;;;;;;5.55;1.42;;;11.60;99.90;;;;;;4981868;28;20081;-83
2022/09/20 05:38:29;;;;;;;6.97;1.75;;;11.60;99.90;;;;;;4990481;28;20034;-84
2022/09/20 05:41:22;;;;;;;9.07;1.70;;;11.60;99.90;;;;;;4986514;28;20100;-83
2022/09/20 05:44:03;;;;;;;5.97;1.27;;;11.50;99.90;;;;;;4979940;28;20076;-83
2022/09/20 05:46:35;;;;;;;7.15;1.90;;;11.50;99.90;;;;;;4987893;28;20042;-83
2022/09/20 05:49:04;;;;;;;6.72;1.58;;;11.50;99.90;;;;;;4990110;28;20038;-83
2022/09/20 05:51:52;;;;;;;4.68;1.58;;;11.50;99.90;;;;;;4996827;28;20041;-84
2022/09/20 05:54:34;;;;;;;3.10;1.20;;;11.50;99.90;;;;;;4996923;28;20096;-84
2022/09/20 05:57:27;;;;;;;9.90;1.95;;;11.50;99.90;;;;;;4984667;28;20449;-84
2022/09/20 06:00:14;;;;;;;6.93;1.40;;;11.50;99.90;;;;;;4984424;28;20047;-85
2022/09/20 06:03:05;;;;;;;5.55;1.30;;;11.50;99.90;;;;;;4982285;28;20085;-84
2022/09/20 06:05:52;;;;;;;7.22;1.63;;;11.50;99.90;;;;;;5013710;28;20126;-84
2022/09/20 06:08:27;;;;;;;7.38;1.52;;;11.50;99.90;;;;;;4994274;28;21573;-84
2022/09/20 06:11:11;;;;;;;6.20;1.48;;;11.50;99.90;;;;;;4975541;28;20038;-83
2022/09/20 06:13:44;;;;;;;;;;;11.50;99.90;;;;;;4992566;28;20045;-82
2022/09/20 06:16:18;;;;;;;4.78;1.60;;;11.50;99.90;;;;;;4998106;28;20337;-84
2022/09/20 06:19:00;;;;;;;4.95;1.33;;;11.60;99.90;;;;;;5009082;28;20537;-84
2022/09/20 06:21:55;;;;;;;5.45;1.15;;;11.70;99.90;;;;;;4980180;28;20034;-83
2022/09/20 06:24:46;;;;;;;4.10;1.20;;;11.70;99.90;;;;;;5011781;23;20033;-61
2022/09/20 06:27:25;;;;;;;5.10;1.85;;;11.80;99.90;;;;;;5044232;28;20179;-61
2022/09/20 06:30:04;;;;;;;5.20;1.33;;;11.90;99.90;;;;;;5041105;28;20044;-60
2022/09/20 06:32:30;;;;;;;4.75;1.73;;;12.00;99.90;;;;;;5042682;28;20039;-58
2022/09/20 06:34:59;;;;;;;4.68;1.55;;;12.10;99.90;;;;;;5024068;28;20363;-60
2022/09/20 06:41:27;;;;;;;7.68;2.22;;;12.40;99.90;;;;;;5028672;28;20598;-60
2022/09/20 06:43:47;;;;;;;4.82;1.35;;;12.40;99.90;;;;;;5035195;28;20128;-61
2022/09/20 06:46:14;;;;;;;7.40;1.83;;;12.60;99.90;;;;;;5028234;28;20434;-62
2022/09/20 06:48:40;;;;;;;10.73;1.75;;;12.70;99.90;;;;;;5044271;28;20043;-60
2022/09/20 06:51:08;;;;;;;5.90;1.55;;;12.80;99.90;;;;;;5047894;28;20465;-61
2022/09/20 06:53:39;;;;;;;8.07;1.42;;;12.90;99.90;;;;;;5046034;28;20059;-60
2022/09/20 06:56:07;;;;;;;6.07;1.20;;;13.10;99.90;;;;;;5014741;28;20044;-60
2022/09/20 06:58:33;;;;;;;6.00;1.35;;;13.10;99.90;;;;;;5029761;28;20455;-60
2022/09/20 07:00:58;;;;;;;6.25;1.10;;;13.50;99.90;;;;;;5034615;28;20045;-61
2022/09/20 07:03:24;;;;;;;6.75;1.00;;;13.30;99.90;;;;;;5044785;28;20048;-62
2022/09/20 07:05:50;;;;;;;6.90;1.40;;;13.30;99.90;;;;;;5018914;28;20511;-62
2022/09/20 07:08:16;;;;;;;7.57;1.77;;;13.30;99.90;;;;;;5025346;28;20091;-61
2022/09/20 07:10:42;;;;;;;6.03;1.90;;;13.30;99.90;;;;;;5053952;28;20123;-62
2022/09/20 07:13:12;;;;;;;8.32;1.60;;;13.30;99.90;;;;;;5024850;28;20045;-62
2022/09/20 07:15:38;;;;;;;6.93;1.38;;;13.40;99.90;;;;;;5049773;28;20108;-61
2022/09/20 07:18:04;;;;;;;7.43;1.45;;;13.40;99.90;;;;;;5035709;28;20120;-62
2022/09/20 07:20:30;;;;;;;8.15;1.27;;;13.50;99.90;;;;;;5049743;28;20476;-61
2022/09/20 07:22:55;;;;;;;9.27;1.52;;;13.50;99.90;;;;;;5053527;28;20060;-62
2022/09/20 07:25:21;;;;;;;10.00;1.60;;;13.60;99.90;;;;;;5041120;28;20075;-62
2022/09/20 07:27:49;;;;;;;9.18;1.85;;;13.60;99.90;;;;;;5050544;28;20034;-61
2022/09/20 07:30:16;;;;;;;8.05;1.27;;;13.60;99.90;;;;;;5037761;28;20242;-62
2022/09/20 07:32:42;;;;;;;6.28;1.30;;;13.70;99.90;;;;;;5048508;28;20037;-62
2022/09/20 07:35:09;;;;;;;8.45;1.30;;;13.90;99.90;;;;;;5053546;28;20095;-61
2022/09/20 07:37:35;;;;;;;10.20;1.38;;;14.00;99.90;;;;;;5038727;28;20515;-60
2022/09/20 07:40:03;;;;;;;4.00;1.00;;;14.10;99.90;;;;;;5052630;28;20395;-61
2022/09/20 07:42:30;;;;;;;4.72;1.40;;;14.20;99.90;;;;;;5007592;28;20040;-61
2022/09/20 07:44:56;;;;;;;5.15;1.17;;;14.30;99.90;;;;;;5049995;28;20120;-61
2022/09/20 07:47:24;;;;;;;5.43;1.23;;;14.30;99.90;;;;;;5056263;28;20115;-60
2022/09/20 07:49:50;;;;;;;8.13;2.22;;;14.40;99.90;;;;;;5054499;28;20033;-58
2022/09/20 07:52:17;;;;;;;9.18;1.42;;;14.50;99.90;;;;;;5041163;28;20320;-58
2022/09/20 07:54:44;;;;;;;10.07;2.08;;;14.60;99.90;;;;;;5028046;28;20045;-62
2022/09/20 07:57:11;;;;;;;9.88;3.05;;;14.70;99.90;;;;;;5022675;28;20052;-61
2022/09/20 07:59:37;;;;;;;11.20;3.38;;;14.80;99.90;;;;;;5050036;28;20124;-62
2022/09/20 08:02:03;;;;;;;5.30;1.70;;;14.90;99.90;;;;;;5056081;28;20033;-61
2022/09/20 08:04:28;;;;;;;7.53;1.67;;;15.00;99.90;;;;;;5056403;28;20044;-61
2022/09/20 08:06:57;;;;;;;8.07;1.20;;;15.00;99.90;;;;;;5051794;28;20369;-62
2022/09/20 08:09:23;;;;;;;4.65;0.95;;;15.10;99.90;;;;;;5018065;28;20049;-62
2022/09/20 08:11:49;;;;;;;4.93;1.10;;;15.10;99.90;;;;;;5046144;28;20033;-62
2022/09/20 08:14:16;;;;;;;6.97;1.63;;;15.20;99.70;;;;;;5055722;28;20091;-62
2022/09/20 08:16:46;;;;;;;6.80;1.10;;;15.30;99.80;;;;;;5037121;28;20037;-62
2022/09/20 08:19:22;;;;;;;8.15;1.23;;;15.50;99.90;;;;;;5050420;28;20053;-60
2022/09/20 08:21:49;;;;;;;8.68;1.40;;;15.60;99.00;;;;;;5029084;28;20055;-62
2022/09/20 08:24:16;;;;;;;6.18;1.08;;;15.70;97.80;;;;;;5047054;28;20099;-61
2022/09/20 08:26:42;;;;;;;7.93;0.90;;;15.80;98.10;;;;;;5045552;28;20035;-61
2022/09/20 08:29:08;;;;;;;5.35;1.10;;;15.70;97.90;;;;;;5052204;28;20041;-61
2022/09/20 08:31:37;;;;;;;4.10;0.93;;;15.70;98.10;;;;;;5042604;28;20140;-61
2022/09/20 08:34:05;;;;;;;6.53;0.82;;;15.60;98.20;;;;;;5036002;28;20103;-62
2022/09/20 08:36:32;;;;;;;4.63;1.17;;;15.50;98.40;;;;;;5047532;28;20070;-61
2022/09/20 08:38:58;;;;;;;4.45;1.10;;;15.50;98.60;;;;;;5046194;28;20045;-61
2022/09/20 08:41:34;;;;;;;7.00;1.13;;;15.30;98.30;;;;;;5056871;28;20056;-61
2022/09/20 08:44:02;;;;;;;6.40;1.20;;;15.30;98.60;;;;;;5033027;28;20045;-62
2022/09/20 08:46:41;;;;;;;5.38;1.58;;;15.20;98.90;;;;;;5019119;28;20530;-61
2022/09/20 08:49:09;;;;;;;6.32;1.20;;;15.10;99.30;;;;;;5044669;28;20102;-62
2022/09/20 08:51:39;;;;;;;6.50;1.10;;;15.10;99.60;;;;;;5018088;28;20098;-63
2022/09/20 08:54:15;;;;;;;4.80;0.93;;;15.10;99.70;;;;;;5010819;28;20040;-64
2022/09/20 08:56:42;;;;;;;7.78;1.38;;;15.10;99.90;;;;;;5028170;28;20438;-63
2022/09/20 08:59:14;;;;;;;5.10;1.42;;;15.00;99.90;;;;;;5006879;28;20079;-63
2022/09/20 09:01:40;;;;;;;8.23;1.20;;;15.00;99.70;;;;;;5030648;28;20040;-63
2022/09/20 09:04:20;;;;;;;8.63;1.75;;;15.00;99.70;;;;;;5037917;28;20095;-63
2022/09/20 09:06:47;;;;;;;6.53;1.33;;;15.00;99.60;;;;;;5021690;28;20480;-63
2022/09/20 09:09:26;;;;;;;8.77;1.40;;;15.00;99.80;;;;;;5040698;28;20043;-64
2022/09/20 09:11:54;;;;;;;4.13;1.05;;;15.10;99.80;;;;;;5000801;28;20037;-64
2022/09/20 09:17:11;;;;;;;4.82;0.98;;;15.50;99.60;;;;;;5024053;28;20058;-63
2022/09/20 09:19:44;;;;;;;6.63;1.48;;;15.70;99.30;;;;;;5043525;28;20037;-63
2022/09/20 09:22:10;;;;;;;8.07;1.63;;;15.90;99.20;;;;;;5021823;28;20064;-63
2022/09/20 09:24:36;;;;;;;8.57;1.40;;;16.10;99.00;;;;;;5029329;28;20155;-63
2022/09/20 09:27:15;;;;;;;7.35;1.40;;;16.30;98.00;;;;;;5051152;28;20124;-64
2022/09/20 09:29:52;;;;;;;8.32;1.13;;;16.40;98.30;;;;;;5040492;28;20113;-63
2022/09/20 09:32:22;;;;;;;7.82;0.98;;;16.60;98.10;;;;;;5033186;28;20037;-62
2022/09/20 09:34:49;;;;;;;7.20;1.60;;;16.60;97.70;;;;;;5035420;28;20100;-62
2022/09/20 09:37:29;;;;;;;9.23;2.08;;;16.70;97.60;;;;;;5036340;28;20496;-63
2022/09/20 09:40:16;;;;;;;8.63;1.45;;;16.80;96.60;;;;;;5032562;28;20076;-63
2022/09/20 09:42:53;;;;;;;4.63;1.17;;;17.00;96.90;;;;;;5046317;28;20084;-63
2022/09/20 09:45:37;;;;;;;6.18;1.10;;;16.90;96.40;;;;;;5048765;28;20060;-63
2022/09/20 09:48:24;;;;;;;5.60;1.63;;;17.10;96.80;;;;;;5024204;28;21043;-63
2022/09/20 09:51:10;;;;;;;8.07;1.63;;;17.20;96.10;;;;;;5029921;28;20072;-59
2022/09/20 09:53:37;;;;;;;5.32;1.70;;;17.20;96.00;;;;;;5047817;28;20053;-63
2022/09/20 09:56:28;;;;;;;8.82;1.17;;;17.20;95.90;;;;;;5030149;28;20126;-60
2022/09/20 09:59:31;;;;;;;5.35;1.73;;;17.00;95.30;;;;;;5042159;28;20048;-61
2022/09/20 10:02:16;;;;;;;6.07;1.38;;;16.70;95.20;;;;;;5043080;28;20169;-63
2022/09/20 10:05:02;;;;;;;8.90;1.55;;;16.60;95.80;;;;;;5019811;28;20480;-63
2022/09/20 10:07:43;;;;;;;7.43;1.73;;;16.60;96.00;;;;;;5029624;28;20387;-62
2022/09/20 10:10:25;;;;;;;8.10;1.63;;;16.60;96.30;;;;;;5020576;28;20131;-64
2022/09/20 10:13:42;;;;;;;5.55;1.63;;;16.60;96.10;;;;;;5029855;28;20048;-62
2022/09/20 10:16:27;;;;;;;6.50;1.58;;;16.40;96.20;;;;;;4951461;28;20119;-62
2022/09/20 10:19:08;;;;;;;3.72;0.85;;;16.40;96.60;;;;;;5026386;28;20531;-62
2022/09/20 10:21:52;;;;;;;5.53;1.13;;;16.40;96.40;;;;;;5010664;28;20037;-62
2022/09/20 10:24:33;;;;;;;;;;;16.40;96.70;;;;;;5047179;28;20051;-62
2022/09/20 10:27:26;;;;;;;6.72;1.30;;;16.50;96.50;;;;;;5029201;28;19967;-63
2022/09/20 10:30:04;;;;;;;5.47;0.90;;;16.60;96.60;;;;;;5029328;28;20048;-62
2022/09/20 10:33:16;;;;;;;9.77;1.30;;;16.60;95.90;;;;;;5028938;28;20037;-62
2022/09/20 10:36:15;;;;;;;6.47;1.75;;;16.60;96.00;;;;;;5039031;28;20037;-63
2022/09/20 10:38:45;;;;;;;7.13;1.20;;;16.50;96.30;;;;;;5026825;28;20094;-62
2022/09/20 10:44:51;;;;;;;6.63;1.55;;;16.50;96.30;;;;;;5022956;28;20175;-62
2022/09/20 10:47:23;;;;;;;9.27;1.20;;;16.40;95.90;;;;;;5009403;28;20053;-62
2022/09/20 10:50:31;;;;;;;9.13;1.20;;;16.60;96.10;;;;;;5018745;28;20104;-61
2022/09/20 10:52:59;;;;;;;6.32;0.98;;;16.80;95.80;;;;;;5018553;28;20051;-61
2022/09/20 10:55:32;;;;;;;5.47;1.02;;;16.80;95.50;;;;;;5023265;28;20406;-62
2022/09/20 10:58:33;;;;;;;5.40;1.13;;;16.90;95.60;;;;;;5037684;28;20052;-62
2022/09/20 11:01:07;;;;;;;7.63;1.00;;;16.90;95.10;;;;;;5007778;28;20128;-61
2022/09/20 11:03:48;;;;;;;5.95;1.10;;;16.70;94.60;;;;;;5019358;28;20053;-61
2022/09/20 11:06:36;;;;;;;5.55;0.95;;;16.80;94.20;;;;;;5021713;28;20045;-63
2022/09/20 11:09:05;;;;;;;6.38;1.20;;;16.90;94.60;;;;;;5025374;28;20045;-63
2022/09/20 11:11:40;;;;;;;5.65;0.90;;;17.10;94.60;;;;;;5028388;28;20504;-62
2022/09/20 11:14:21;;;;;;;7.32;1.25;;;17.30;94.10;;;;;;5008284;28;20045;-62
2022/09/20 11:17:02;;;;;;;6.53;1.15;;;17.80;93.90;;;;;;5026445;28;20600;-63
2022/09/20 11:19:33;;;;;;;8.35;1.00;;;17.80;93.80;;;;;;5023556;28;20055;-63
2022/09/20 11:22:06;;;;;;;5.63;1.10;;;17.80;93.50;;;;;;5023639;28;20108;-54
2022/09/20 11:24:42;;;;;;;5.95;1.50;;;17.60;92.90;;;;;;5043286;28;20045;-55
2022/09/20 11:27:24;;;;;;;6.70;1.60;;;17.40;92.80;;;;;;5020021;28;20102;-62
2022/09/20 11:30:07;;;;;;;5.13;1.20;;;17.20;92.90;;;;;;5042669;28;20041;-63
2022/09/20 11:32:52;;;;;;;4.53;0.85;;;17.30;92.80;;;;;;5016319;28;20329;-63
2022/09/20 11:35:32;;;;;;;2.88;0.73;;;17.60;92.10;;;;;;5023698;28;20396;-62
2022/09/20 11:38:03;;;;;;;5.78;0.98;;;17.80;92.30;;;;;;5031364;28;20041;-62
2022/09/20 11:40:44;;;;;;;5.40;1.08;;;17.80;91.80;;;;;;5027698;28;20139;-62
2022/09/20 11:43:14;;;;;;;5.35;1.02;;;17.90;91.70;;;;;;5048567;28;20060;-62
2022/09/20 11:45:42;;;;;;;4.00;0.93;;;17.70;91.00;;;;;;5044882;28;20034;-63
2022/09/20 11:48:20;;;;;;;3.92;1.30;;;17.70;91.20;;;;;;5043584;28;20059;-60
2022/09/20 11:51:04;;;;;;;3.72;0.98;;;17.90;90.70;;;;;;5031467;28;20072;-63
2022/09/20 11:53:53;;;;;;;4.32;1.02;;;17.90;91.20;;;;;;5025841;28;20132;-63
2022/09/20 11:56:27;;;;;;;4.47;0.90;;;17.90;90.40;;;;;;5014729;28;20170;-63
2022/09/20 11:59:06;;;;;;;7.97;0.98;;;18.00;90.20;;;;;;5022850;28;20098;-60
2022/09/20 12:01:37;;;;;;;7.65;1.23;;;17.70;91.20;;;;;;5036421;28;20290;-60
2022/09/20 12:04:18;;;;;;;4.88;1.08;;;17.30;94.20;;;;;;5048121;28;20098;-59
2022/09/20 12:06:45;;;;;;;8.10;1.10;;;16.80;95.10;;;;;;5045167;28;20059;-60
2022/09/20 12:09:31;;;;;;;8.27;1.58;;;16.40;96.10;;;;;;5025473;28;20103;-60
2022/09/20 12:11:58;;;;;;;5.32;1.15;;;16.50;96.90;;;;;;5039533;28;20041;-60
2022/09/20 12:14:26;;;;;;;5.75;1.35;;;16.60;96.60;;;;;;5025358;28;20110;-61
2022/09/20 12:16:53;;;;;;;6.25;1.25;;;16.70;96.40;;;;;;5001655;28;20052;-62
2022/09/20 12:19:31;;;;;;;5.50;1.45;;;16.50;96.60;;;;;;5016163;28;20093;-61
2022/09/20 12:21:57;;;;;;;6.07;0.80;;;16.70;96.50;;;;;;5019100;28;20143;-61
2022/09/20 12:24:28;;;;;;;4.50;1.10;;;16.90;96.50;;;;;;5044248;23;20056;-61
2022/09/20 12:27:21;;;;;;;6.82;1.17;;;17.10;96.20;;;;;;4993926;28;20046;-61
2022/09/20 12:30:02;;;;;;;7.78;1.63;;;17.50;96.40;;;;;;4990801;28;20636;-61
2022/09/20 12:33:01;;;;;;;6.95;1.38;;;18.00;96.30;;;;;;4988014;28;20129;-62
2022/09/20 12:35:35;;;;;;;5.80;1.27;;;18.20;95.20;;;;;;5002624;28;20042;-62
2022/09/20 12:38:19;;;;;;;5.15;1.00;;;18.20;93.20;;;;;;4993499;28;20052;-61
2022/09/20 12:41:03;;;;;;;5.25;0.90;;;18.50;94.40;;;;;;4996548;28;20038;-61
2022/09/20 12:43:32;;;;;;;5.28;1.05;;;18.80;94.10;;;;;;5000213;28;20188;-61
2022/09/20 12:45:59;;;;;;;5.25;1.00;;;18.70;92.90;;;;;;5002815;28;20527;-61
2022/09/20 12:48:26;;;;;;;6.88;1.30;;;18.30;92.50;;;;;;4992414;28;20038;-58
2022/09/20 12:54:07;;;;;;;4.00;0.90;;;17.80;92.00;;;;;;4990513;28;20050;-61
2022/09/20 12:56:35;;;;;;;4.20;1.15;;;17.40;92.40;;;;;;5001527;28;20046;-61
2022/09/20 12:59:06;;;;;;;5.05;1.10;;;17.20;92.70;;;;;;5000811;28;20405;-61
2022/09/20 13:01:35;;;;;;;4.82;0.90;;;17.10;91.90;;;;;;5005918;28;20046;-62
2022/09/20 13:04:48;;;;;;;3.15;0.90;;;17.30;92.20;;;;;;5001215;28;20069;-61
2022/09/20 13:07:46;;;;;;;2.08;0.70;;;17.60;90.00;;;;;;4949447;28;20168;-61
2022/09/20 13:10:25;;;;;;;4.47;0.95;;;17.80;88.20;;;;;;4950545;28;20139;-61
2022/09/20 13:12:56;;;;;;;3.75;1.00;;;18.10;89.00;;;;;;4984873;28;20053;-61
2022/09/20 13:15:22;;;;;;;2.38;1.10;;;18.40;89.40;;;;;;4990973;28;20038;-60
2022/09/20 13:17:52;;;;;;;3.17;0.77;;;18.40;87.00;;;;;;5000221;28;20092;-61
2022/09/20 13:20:28;;;;;;;5.22;1.02;;;18.40;87.20;;;;;;4996474;28;20432;-60
2022/09/20 13:22:55;;;;;;;4.35;1.08;;;18.60;88.20;;;;;;4999200;28;20036;-60
2022/09/20 13:25:22;;;;;;;4.15;0.90;;;18.80;88.50;;;;;;4989330;28;20093;-60
2022/09/20 13:28:09;;;;;;;6.32;1.25;;;19.00;89.70;;;;;;4990511;28;20038;-62
2022/09/20 13:30:35;;;;;;;7.47;1.35;;;19.00;90.10;;;;;;4988805;28;20046;-62
2022/09/20 13:33:21;;;;;;;6.25;1.25;;;18.80;90.70;;;;;;5001939;28;20361;-61
2022/09/20 13:35:49;;;;;;;5.75;1.00;;;18.70;90.90;;;;;;5001275;28;20049;-61
2022/09/20 13:38:23;;;;;;;10.88;3.15;;;18.40;91.50;;;;;;5005982;28;20045;-61
2022/09/20 13:40:51;;;;;;;11.05;2.97;;;18.50;91.80;;;;;;5005227;28;20054;-65
2022/09/20 13:43:35;;;;;;;6.88;1.30;;;18.50;90.90;;;;;;5001371;28;20121;-61
2022/09/20 13:46:15;;;;;;;8.10;1.50;;;18.50;91.40;;;;;;4999966;28;20053;-61
2022/09/20 13:48:44;;;;;;;6.75;1.38;;;18.60;90.80;;;;;;4998072;28;20797;-61
2022/09/20 13:51:25;;;;;;;9.43;1.25;;;18.70;91.20;;;;;;5001707;28;20042;-61
2022/09/20 13:53:51;;;;;;;4.78;1.10;;;18.70;91.20;;;;;;4991102;28;20077;-61
2022/09/20 13:56:21;;;;;;;5.95;1.20;;;18.70;91.20;;;;;;4996597;28;20442;-62